Terminal Aerodrome Forecast
Issued by NWS Albuquerque, NM

Home | Current Version | Previous Version | Text Only | Print | Product List | Glossary On
Versions: 1 2 3 4 5 6 7 8 9 10 11 12 13 14 15 16 17
000
FTUS45 KABQ 021726
TAFABQ
TAF
KABQ 021726Z 0218/0318 VRB03KT P6SM SCT040
     FM022000 23007KT P6SM SCT050
     FM030200 04005KT P6SM BKN050 BKN090
     FM030900 01005KT P6SM SKC=

USA.gov is the U.S. government's official web portal to all federal, state and local government web resources and services.